• Join FlightAware (Why Join?)
  • Login
  • US Flag 
07:01AM EDT


 

Airport Tracker/Info


-or-


 

Live Flight TrackerFlight Track Log ✈ LOF3402 ✈ 05-May-2012 ✈ KORD - KCVG

Flight Track Log - Related Links

Times and Time Zones

All times are in EDT time to prevent confusion due to time zone crossing. See the LOF3402 flight status page for this flight to view local times or setup timezone preferences in your user account.

Time Position Orientation Groundspeed Altitude Reporting Facility
EDT Latitude Longitude Course Direction KTS MPH feet Rate Location/Type
08:46AM 41.8288 -87.8122 256° West  Level FlightAware Approximate
08:47AM 41.7304 -87.7483 305° West  Level FlightAware Approximate
08:48AM 41.8119 -87.9042 147° Southeast 224 258 6,100  Level Chicago Center
08:51AM 41.5989 -87.7172 149° Southeast 313 360 23,000 2,040 Climbing Chicago Center
08:52AM 41.5167 -87.6500 149° Southeast 335 386 14,300 -3,600 Descending Chicago Center
08:53AM 41.4278 -87.5775 155° Southeast 354 407 15,800 1,500 Climbing Chicago Center
08:54AM 41.3289 -87.5167 154° Southeast 375 432 17,300 1,440 Climbing Chicago Center
08:55AM 41.2300 -87.4531 156° South 386 444 18,700 1,440 Climbing Chicago Center
08:56AM 41.1289 -87.3928 156° South 392 451 20,200 1,500 Climbing Chicago Center
08:57AM 41.0236 -87.3297 155° Southeast 403 464 21,700 1,380 Climbing Chicago Center
08:58AM 40.9161 -87.2644 156° South 409 471 23,000 600 Climbing Chicago Center
08:59AM 40.8064 -87.1992 156° South 420 483 23,000  Level Chicago Center
09:00AM 40.6883 -87.1292 157° South 442 509 23,000  Level Chicago Center
09:01AM 40.5639 -87.0594 156° South 442 509 23,000  Level Chicago Center
09:03AM 40.3244 -86.9169 156° South 450 518 23,000  Level Indianapolis Center
09:04AM 40.2094 -86.8489 155° Southeast 461 531 23,000  Level Indianapolis Center
09:05AM 40.0906 -86.7781 147° Southeast 461 531 23,000  Level Indianapolis Center
09:06AM 39.9844 -86.6892 125° Southeast 461 531 23,000  Level Indianapolis Center
09:07AM 39.9108 -86.5533 124° Southeast 449 517 23,000 -600 Level Indianapolis Center
09:08AM 39.8414 -86.4178 122° Southeast 458 527 21,800 -1,440 Descending Indianapolis Center
09:09AM 39.7758 -86.2800 98° East 452 520 20,200 -2,220 Descending Indianapolis Center
09:09AM 39.7667 -86.2000 117° Southeast 433 498 18,400 -2,820 Descending Indianapolis TRACON
09:10AM 39.7333 -86.1167 115° Southeast 417 480 17,000 -2,160 Descending Indianapolis TRACON
09:11AM 39.6903 -85.9989 114° Southeast 416 479 15,300 -1,920 Descending Indianapolis Center
09:12AM 39.6469 -85.8706 113° Southeast 401 461 13,500 -1,740 Descending Indianapolis Center
09:13AM 39.6056 -85.7425 114° Southeast 388 447 11,900 -1,260 Descending Indianapolis Center
09:14AM 39.5619 -85.6147 114° Southeast 383 441 11,000 -480 Descending Indianapolis Center
09:15AM 39.5181 -85.4894 125° Southeast 383 441 11,000  Level Indianapolis Center
09:16AM 39.4575 -85.3778 125° Southeast 388 447 11,000  Level Indianapolis Center
09:17AM 39.3964 -85.2658 126° Southeast 388 447 11,000  Level Indianapolis Center
09:18AM 39.3417 -85.1681 125° Southeast 388 447 11,000  Level Indianapolis Center
09:19AM 39.2806 -85.0567 125° Southeast 388 447 11,000  Level Indianapolis Center
09:20AM 39.2194 -84.9453 125° Southeast 388 447 11,000 -360 Level Indianapolis Center
09:21AM 39.1642 -84.8425 150° Southeast 373 429 10,300 -1,200 Descending Indianapolis Center
09:22AM 39.0833 -84.7833 180° South 297 342 8,500 -1,800 Descending Cincinnati TRACON
09:23AM 38.9833 -84.7833 180° South 286 329 6,400 -1,860 Descending Cincinnati TRACON
09:24AM 38.9167 -84.7833 171° South 277 319 4,600 -1,680 Descending Cincinnati TRACON
09:25AM 38.8333 -84.7667 108° East 274 315 3,100 -900 Descending Cincinnati TRACON
09:26AM 38.8167 -84.7000 49° Northeast 236 272 3,000 -60 Descending Cincinnati TRACON
09:27AM 38.8500 -84.6500 360° North 205 236 3,000  Level Cincinnati TRACON
09:28AM 38.9000 -84.6500 360° North 196 226 3,000 -240 Level Cincinnati TRACON
09:29AM 38.9333 -84.6500 360° North 134 154 2,600 -420 Descending Cincinnati TRACON